createdAt,value
2022-08-05T00:00:16.706Z,21.24
2022-08-05T00:02:50.925Z,21.16
2022-08-05T00:06:03.300Z,21.25
2022-08-05T00:08:32.933Z,21.07
2022-08-05T00:11:00.533Z,21.11
2022-08-05T00:13:38.334Z,21.04
2022-08-05T00:16:08.569Z,21.06
2022-08-05T00:18:37.861Z,21.04
2022-08-05T00:21:08.323Z,21.01
2022-08-05T00:23:46.102Z,21.05
2022-08-05T00:26:22.095Z,21.05
2022-08-05T00:28:50.991Z,20.98
2022-08-05T00:31:53.064Z,20.95
2022-08-05T00:34:54.966Z,20.87
2022-08-05T00:37:10.691Z,20.92
2022-08-05T00:39:44.133Z,20.74
2022-08-05T00:42:32.643Z,20.81
2022-08-05T00:45:01.132Z,20.76
2022-08-05T00:47:29.754Z,20.78
2022-08-05T00:50:18.109Z,20.75
2022-08-05T00:52:50.695Z,20.72
2022-08-05T00:55:21.801Z,20.78
2022-08-05T00:57:58.594Z,20.74
2022-08-05T01:00:28.136Z,20.69
2022-08-05T01:02:56.703Z,20.85
2022-08-05T01:05:27.548Z,20.85
2022-08-05T01:08:40.968Z,20.79
2022-08-05T01:10:51.711Z,20.75
2022-08-05T01:13:27.590Z,20.80
2022-08-05T01:16:21.120Z,20.89
2022-08-05T01:18:57.959Z,20.83
2022-08-05T01:21:38.729Z,20.82
2022-08-05T01:24:13.428Z,20.79
2022-08-05T01:26:49.644Z,20.81
2022-08-05T01:29:22.981Z,20.73
2022-08-05T01:31:54.008Z,20.67
2022-08-05T01:34:26.942Z,20.66
2022-08-05T01:37:00.665Z,20.75
2022-08-05T01:39:45.693Z,20.79
2022-08-05T01:42:16.157Z,20.84
2022-08-05T01:44:54.228Z,20.79
2022-08-05T01:47:23.228Z,20.81
2022-08-05T01:50:01.736Z,20.81
2022-08-05T01:52:31.348Z,20.90
2022-08-05T01:55:04.361Z,20.80
2022-08-05T01:58:10.382Z,20.72
2022-08-05T02:00:30.469Z,20.70
2022-08-05T02:03:00.609Z,20.72
2022-08-05T02:05:34.064Z,20.66
2022-08-05T02:08:03.055Z,20.60
2022-08-05T02:10:34.935Z,20.70
2022-08-05T02:13:04.978Z,20.57
2022-08-05T02:15:48.262Z,20.39
2022-08-05T02:18:32.146Z,20.36
2022-08-05T02:21:04.825Z,20.52
2022-08-05T02:23:35.648Z,20.49
2022-08-05T02:26:04.819Z,20.45
2022-08-05T02:28:38.100Z,20.42
2022-08-05T02:31:13.123Z,20.24
2022-08-05T02:33:45.123Z,20.15
2022-08-05T02:36:19.080Z,20.08
2022-08-05T02:38:53.460Z,19.83
2022-08-05T02:41:23.129Z,19.90
2022-08-05T02:44:02.291Z,19.91
2022-08-05T02:46:53.595Z,19.64
2022-08-05T02:49:24.989Z,19.70
2022-08-05T02:52:04.331Z,19.67
2022-08-05T02:54:37.129Z,19.79
2022-08-05T02:57:10.394Z,19.74
2022-08-05T02:59:55.433Z,19.68
2022-08-05T03:02:27.857Z,19.71
2022-08-05T03:04:56.436Z,19.87
2022-08-05T03:08:00.372Z,19.92
2022-08-05T03:10:13.379Z,20.04
2022-08-05T03:12:42.007Z,20.11
2022-08-05T03:15:12.292Z,20.02
2022-08-05T03:17:44.831Z,20.23
2022-08-05T03:20:13.806Z,20.17
2022-08-05T03:22:44.052Z,20.14
2022-08-05T03:25:33.176Z,20.16
2022-08-05T03:28:05.217Z,20.14
2022-08-05T03:30:34.436Z,19.91
2022-08-05T03:33:05.749Z,19.64
2022-08-05T03:35:41.597Z,19.35
2022-08-05T03:38:12.085Z,19.15
2022-08-05T03:40:45.247Z,19.05
2022-08-05T03:44:09.269Z,19.08
2022-08-05T03:46:04.534Z,19.14
2022-08-05T03:48:35.683Z,19.33
2022-08-05T03:52:36.556Z,19.38
2022-08-05T03:55:34.249Z,19.36
2022-08-05T03:56:50.016Z,19.40
2022-08-05T03:59:20.320Z,19.40
2022-08-05T04:01:50.447Z,19.25
2022-08-05T04:04:21.364Z,19.16
2022-08-05T04:06:51.361Z,19.16
2022-08-05T04:09:25.953Z,19.28
2022-08-05T04:11:56.449Z,19.31
2022-08-05T04:14:29.799Z,19.18
2022-08-05T04:17:02.120Z,19.18
2022-08-05T04:19:32.829Z,19.32
2022-08-05T04:22:08.713Z,19.30
2022-08-05T04:24:44.005Z,19.38
2022-08-05T04:27:13.565Z,19.49
2022-08-05T04:29:41.996Z,19.49
2022-08-05T04:32:10.757Z,19.55
2022-08-05T04:34:42.837Z,19.34
2022-08-05T04:37:12.723Z,19.57
2022-08-05T04:39:41.300Z,19.51
2022-08-05T04:42:10.500Z,19.47
2022-08-05T04:44:41.118Z,19.55
2022-08-05T04:47:10.446Z,19.39
2022-08-05T04:50:02.598Z,19.44
2022-08-05T04:52:33.352Z,19.33
2022-08-05T04:55:13.789Z,19.06
2022-08-05T04:57:47.704Z,19.24
2022-08-05T05:00:17.020Z,19.30
2022-08-05T05:02:47.724Z,19.44
2022-08-05T05:05:34.652Z,19.69
2022-08-05T05:08:42.735Z,19.53
2022-08-05T05:11:11.740Z,19.35
2022-08-05T05:13:43.645Z,19.54
2022-08-05T05:16:12.256Z,19.67
2022-08-05T05:19:08.996Z,19.78
2022-08-05T05:21:34.613Z,19.89
2022-08-05T05:24:08.954Z,20.11
2022-08-05T05:26:37.849Z,20.02
2022-08-05T05:29:14.371Z,20.05
2022-08-05T05:31:46.313Z,20.04
2022-08-05T05:34:15.638Z,20.01
2022-08-05T05:36:47.046Z,19.76
2022-08-05T05:39:19.185Z,19.47
2022-08-05T05:41:54.105Z,19.60
2022-08-05T05:44:37.555Z,19.73
2022-08-05T05:47:21.330Z,19.97
2022-08-05T05:49:52.545Z,19.85
2022-08-05T05:52:29.919Z,19.77
2022-08-05T05:55:01.922Z,19.67
2022-08-05T05:57:51.976Z,19.63
2022-08-05T06:00:21.974Z,19.55
2022-08-05T06:03:00.832Z,19.62
2022-08-05T06:05:29.542Z,19.38
2022-08-05T06:08:02.278Z,19.63
2022-08-05T06:10:36.346Z,19.54
2022-08-05T06:13:05.536Z,19.53
2022-08-05T06:16:30.547Z,19.44
2022-08-05T06:18:31.002Z,19.56
2022-08-05T06:21:00.268Z,19.66
2022-08-05T06:23:32.250Z,19.79
2022-08-05T06:26:21.669Z,19.89
2022-08-05T06:28:53.217Z,20.01
2022-08-05T06:31:22.600Z,19.84
2022-08-05T06:34:07.634Z,20.12
2022-08-05T06:36:57.218Z,19.97
2022-08-05T06:39:27.901Z,20.26
2022-08-05T06:41:58.939Z,20.22
2022-08-05T06:44:28.400Z,20.21
2022-08-05T06:46:56.774Z,20.30
2022-08-05T06:50:01.476Z,20.31
2022-08-05T06:52:36.794Z,20.52
2022-08-05T06:55:03.362Z,20.48
2022-08-05T06:58:03.281Z,20.53
2022-08-05T07:00:22.248Z,20.65
2022-08-05T07:02:53.602Z,20.65
2022-08-05T07:05:36.884Z,20.69
2022-08-05T07:08:06.747Z,20.68
2022-08-05T07:10:52.410Z,20.58
2022-08-05T07:13:57.668Z,20.67
2022-08-05T07:17:57.076Z,20.63
2022-08-05T07:20:05.773Z,20.77
2022-08-05T07:22:15.998Z,20.94
2022-08-05T07:24:52.413Z,20.24
2022-08-05T07:27:23.561Z,20.34
2022-08-05T07:30:24.084Z,20.16
2022-08-05T07:32:53.279Z,19.90
2022-08-05T07:35:55.713Z,19.67
2022-08-05T07:38:12.320Z,19.84
2022-08-05T07:40:44.512Z,19.94
2022-08-05T07:43:20.480Z,19.95
2022-08-05T07:45:57.585Z,19.92
2022-08-05T07:49:02.172Z,19.75
2022-08-05T07:51:23.127Z,19.62
2022-08-05T07:54:04.769Z,19.67
2022-08-05T07:57:00.691Z,19.56
2022-08-05T07:59:38.202Z,19.40
2022-08-05T08:02:15.467Z,19.47
2022-08-05T08:04:46.460Z,19.61
2022-08-05T08:07:15.452Z,19.58
2022-08-05T08:09:44.114Z,19.43
2022-08-05T08:12:37.284Z,19.34
2022-08-05T08:15:04.457Z,19.34
2022-08-05T08:17:35.271Z,19.38
2022-08-05T08:20:44.086Z,19.33
2022-08-05T08:22:55.760Z,19.31
2022-08-05T08:25:27.157Z,19.24
2022-08-05T08:28:18.763Z,19.31
2022-08-05T08:31:02.749Z,19.18
2022-08-05T08:33:37.429Z,19.02
2022-08-05T08:36:38.255Z,18.76
2022-08-05T08:38:57.019Z,18.76
2022-08-05T08:41:51.168Z,18.69
2022-08-05T08:45:18.645Z,18.68
2022-08-05T08:47:47.750Z,18.72
2022-08-05T08:50:22.916Z,18.58
2022-08-05T08:52:51.628Z,18.49
2022-08-05T08:56:01.756Z,18.48
2022-08-05T08:58:13.117Z,18.36
2022-08-05T09:00:42.659Z,18.34
2022-08-05T09:03:16.099Z,18.08
2022-08-05T09:06:07.997Z,18.08
2022-08-05T09:08:37.231Z,18.01
2022-08-05T09:11:08.961Z,17.93
2022-08-05T09:14:10.183Z,17.78
2022-08-05T09:16:30.889Z,17.81
2022-08-05T09:19:00.608Z,17.76
2022-08-05T09:22:23.519Z,17.69
2022-08-05T09:24:24.375Z,17.63
2022-08-05T09:26:57.337Z,17.56
2022-08-05T09:29:47.840Z,17.62
2022-08-05T09:32:40.886Z,17.56
2022-08-05T09:35:26.562Z,17.56
2022-08-05T09:38:17.090Z,17.32
2022-08-05T09:40:53.892Z,17.43
2022-08-05T09:43:40.931Z,17.30
2022-08-05T09:46:27.816Z,17.39
2022-08-05T09:49:07.206Z,17.43
2022-08-05T09:51:39.870Z,17.19
2022-08-05T09:54:11.599Z,17.28
2022-08-05T09:56:51.853Z,17.27
2022-08-05T09:59:20.891Z,17.34
2022-08-05T10:01:57.946Z,17.38
2022-08-05T10:04:36.146Z,17.42
2022-08-05T10:07:20.281Z,17.28
2022-08-05T10:10:13.952Z,17.21
2022-08-05T10:12:49.586Z,17.08
2022-08-05T10:15:23.612Z,17.22
2022-08-05T10:18:07.392Z,17.04
2022-08-05T10:20:37.498Z,17.15
2022-08-05T10:23:21.797Z,17.10
2022-08-05T10:25:56.214Z,17.20
2022-08-05T10:28:30.360Z,17.25
2022-08-05T10:32:49.465Z,17.30
2022-08-05T10:33:52.285Z,17.46
2022-08-05T10:36:26.086Z,17.38
2022-08-05T10:39:00.986Z,17.37
2022-08-05T10:41:44.889Z,17.56
2022-08-05T10:44:18.533Z,17.37
2022-08-05T10:46:50.575Z,17.61
2022-08-05T10:49:26.838Z,17.45
2022-08-05T10:52:00.434Z,17.51
2022-08-05T10:54:56.806Z,17.36
2022-08-05T10:57:29.673Z,17.36
2022-08-05T11:00:17.926Z,17.51
2022-08-05T11:03:23.747Z,17.32
2022-08-05T11:06:06.189Z,17.47
2022-08-05T11:08:39.266Z,17.31
2022-08-05T11:11:52.453Z,17.39
2022-08-05T11:14:56.338Z,17.38
2022-08-05T11:17:57.566Z,17.68
2022-08-05T11:20:37.462Z,18.09
2022-08-05T11:23:33.724Z,18.00
2022-08-05T11:26:28.361Z,18.10
2022-08-05T11:29:06.937Z,18.07
2022-08-05T11:31:57.686Z,18.22
2022-08-05T11:34:39.685Z,18.50
2022-08-05T11:38:26.093Z,18.69
2022-08-05T11:40:02.832Z,18.53
2022-08-05T11:42:37.777Z,18.71
2022-08-05T11:45:23.374Z,18.93
2022-08-05T11:47:59.036Z,18.85
2022-08-05T11:50:27.838Z,18.92
2022-08-05T11:52:58.216Z,18.82
2022-08-05T11:55:32.206Z,18.91
2022-08-05T11:58:09.327Z,18.99
2022-08-05T12:00:44.312Z,19.23
2022-08-05T12:03:28.429Z,19.25
2022-08-05T12:06:01.466Z,19.44
2022-08-05T12:08:31.583Z,19.18
2022-08-05T12:11:03.447Z,19.49
2022-08-05T12:13:48.865Z,19.72
2022-08-05T12:16:25.550Z,19.61
2022-08-05T12:18:55.832Z,19.75
2022-08-05T12:21:26.728Z,19.93
2022-08-05T12:24:04.982Z,20.04
2022-08-05T12:26:36.436Z,19.84
2022-08-05T12:29:05.660Z,19.98
2022-08-05T12:31:45.900Z,20.10
2022-08-05T12:34:21.147Z,20.25
2022-08-05T12:36:50.280Z,20.22
2022-08-05T12:39:19.362Z,20.40
2022-08-05T12:41:48.746Z,20.58
2022-08-05T12:44:21.622Z,20.67
2022-08-05T12:47:02.618Z,20.76
2022-08-05T12:50:04.853Z,20.91
2022-08-05T12:52:35.321Z,21.00
2022-08-05T12:55:21.977Z,20.77
2022-08-05T12:58:48.441Z,21.14
2022-08-05T13:02:03.552Z,21.67
2022-08-05T13:03:33.456Z,21.54
2022-08-05T13:06:02.092Z,21.04
2022-08-05T13:08:32.302Z,20.97
2022-08-05T13:11:02.167Z,21.28
2022-08-05T13:14:06.602Z,21.39
2022-08-05T13:16:20.729Z,21.02
2022-08-05T13:18:57.593Z,21.43
2022-08-05T13:21:27.743Z,21.83
2022-08-05T13:23:58.740Z,21.92
2022-08-05T13:26:30.222Z,21.94
2022-08-05T13:28:59.338Z,21.94
2022-08-05T13:31:33.929Z,22.10
2022-08-05T13:34:22.358Z,22.40
2022-08-05T13:37:00.629Z,22.34
2022-08-05T13:40:13.705Z,22.42
2022-08-05T13:42:17.987Z,22.44
2022-08-05T13:44:46.758Z,22.46
2022-08-05T13:47:35.110Z,22.56
2022-08-05T13:50:06.879Z,22.95
2022-08-05T13:52:39.687Z,22.50
2022-08-05T13:55:10.205Z,22.76
2022-08-05T13:57:50.639Z,22.73
2022-08-05T14:00:27.493Z,22.71
2022-08-05T14:02:56.964Z,22.63
2022-08-05T14:05:48.483Z,22.50
2022-08-05T14:08:20.727Z,22.60
2022-08-05T14:10:59.749Z,22.23
2022-08-05T14:13:44.159Z,22.33
2022-08-05T14:16:19.268Z,22.30
2022-08-05T14:18:48.057Z,22.32
2022-08-05T14:22:06.763Z,22.31
2022-08-05T14:24:10.007Z,22.12
2022-08-05T14:26:51.349Z,22.25
2022-08-05T14:29:26.941Z,22.49
2022-08-05T14:32:12.991Z,22.52
2022-08-05T14:34:45.501Z,22.42
2022-08-05T14:37:15.766Z,22.42
2022-08-05T14:39:49.501Z,22.57
2022-08-05T14:42:20.765Z,22.31
2022-08-05T14:44:49.883Z,22.44
2022-08-05T14:47:58.545Z,22.65
2022-08-05T14:50:18.256Z,22.44
2022-08-05T14:52:53.623Z,22.05
2022-08-05T14:55:38.392Z,22.26
2022-08-05T14:58:11.264Z,22.31
2022-08-05T15:00:59.432Z,22.49
2022-08-05T15:03:33.573Z,22.41
2022-08-05T15:06:07.035Z,22.24
2022-08-05T15:09:01.370Z,22.11
2022-08-05T15:11:51.752Z,22.21
2022-08-05T15:14:35.814Z,22.02
2022-08-05T15:17:14.725Z,21.93
2022-08-05T15:19:57.938Z,22.12
2022-08-05T15:22:27.111Z,22.18
2022-08-05T15:24:59.291Z,22.04
2022-08-05T15:27:36.052Z,21.83
2022-08-05T15:30:05.196Z,22.28
2022-08-05T15:32:33.714Z,21.85
2022-08-05T15:35:04.188Z,21.92
2022-08-05T15:38:34.952Z,21.88
2022-08-05T15:41:03.339Z,22.11
2022-08-05T15:43:20.635Z,21.86
2022-08-05T15:46:00.510Z,21.83
2022-08-05T15:48:30.144Z,22.20
2022-08-05T15:51:03.337Z,22.26
2022-08-05T15:53:38.017Z,22.31
2022-08-05T15:56:20.437Z,22.24
2022-08-05T15:58:49.864Z,21.90
2022-08-05T16:01:20.192Z,21.87
2022-08-05T16:03:57.680Z,21.99
2022-08-05T16:06:26.358Z,22.09
2022-08-05T16:08:56.429Z,22.00
2022-08-05T16:11:42.601Z,22.06
2022-08-05T16:14:17.055Z,21.77
2022-08-05T16:16:46.768Z,21.77
2022-08-05T16:19:25.887Z,22.12
2022-08-05T16:22:04.643Z,21.99
2022-08-05T16:24:40.407Z,21.93
2022-08-05T16:27:15.773Z,21.77
2022-08-05T16:29:51.014Z,22.00
2022-08-05T16:32:28.344Z,22.17
2022-08-05T16:34:58.909Z,22.24
2022-08-05T16:38:03.269Z,22.02
2022-08-05T16:40:24.752Z,22.18
2022-08-05T16:42:56.505Z,21.94
2022-08-05T16:46:04.729Z,21.74
2022-08-05T16:48:25.606Z,21.59
2022-08-05T16:51:01.858Z,21.93
2022-08-05T16:53:31.841Z,22.06
2022-08-05T16:56:18.966Z,22.00
2022-08-05T16:58:49.439Z,21.83
2022-08-05T17:01:19.031Z,21.61
2022-08-05T17:03:47.751Z,21.42
2022-08-05T17:06:16.826Z,21.41
2022-08-05T17:08:53.755Z,21.30
2022-08-05T17:11:23.502Z,21.53
2022-08-05T17:14:00.685Z,21.49
2022-08-05T17:16:36.446Z,21.29
2022-08-05T17:19:07.697Z,21.31
2022-08-05T17:21:39.556Z,21.25
2022-08-05T17:24:19.508Z,20.89
2022-08-05T17:26:58.168Z,20.89
2022-08-05T17:32:17.276Z,20.77
2022-08-05T17:34:48.210Z,20.66
2022-08-05T17:37:39.324Z,20.44
2022-08-05T17:40:10.133Z,20.36
2022-08-05T17:42:41.782Z,20.26
2022-08-05T17:45:22.040Z,20.08
2022-08-05T17:47:54.639Z,20.03
2022-08-05T17:50:28.771Z,19.98
2022-08-05T17:53:00.398Z,19.89
2022-08-05T17:55:37.377Z,19.95
2022-08-05T17:58:09.691Z,19.96
2022-08-05T18:00:44.455Z,19.87
2022-08-05T18:03:28.055Z,19.89
2022-08-05T18:06:05.087Z,19.90
2022-08-05T18:08:34.235Z,19.87
2022-08-05T18:11:03.410Z,19.78
2022-08-05T18:13:44.066Z,19.75
2022-08-05T18:16:14.494Z,19.62
2022-08-05T18:18:47.827Z,19.48
2022-08-05T18:21:21.031Z,19.53
2022-08-05T18:23:53.736Z,19.50
2022-08-05T18:26:27.682Z,19.39
2022-08-05T18:28:58.414Z,19.28
2022-08-05T18:31:32.938Z,19.19
2022-08-05T18:34:06.048Z,19.17
2022-08-05T18:36:36.306Z,19.08
2022-08-05T18:39:06.593Z,19.11
2022-08-05T18:42:00.467Z,19.08
2022-08-05T18:44:34.759Z,18.83
2022-08-05T18:47:05.200Z,18.92
2022-08-05T18:49:57.974Z,18.79
2022-08-05T18:52:35.635Z,18.68
2022-08-05T18:55:05.355Z,18.63
2022-08-05T18:57:43.484Z,18.60
2022-08-05T19:00:27.150Z,18.55
2022-08-05T19:03:03.894Z,18.39
2022-08-05T19:06:13.043Z,18.39
2022-08-05T19:08:30.124Z,18.26
2022-08-05T19:10:59.549Z,18.17
2022-08-05T19:14:00.728Z,18.12
2022-08-05T19:16:36.889Z,18.10
2022-08-05T19:19:20.747Z,18.09
2022-08-05T19:21:51.443Z,17.94
2022-08-05T19:24:34.318Z,17.99
2022-08-05T19:27:08.289Z,17.79
2022-08-05T19:29:39.427Z,17.80
2022-08-05T19:32:11.098Z,17.71
2022-08-05T19:34:54.286Z,17.74
2022-08-05T19:37:29.973Z,17.70
2022-08-05T19:40:08.009Z,17.50
2022-08-05T19:42:38.814Z,17.50
2022-08-05T19:45:08.396Z,17.35
2022-08-05T19:47:43.355Z,17.42
2022-08-05T19:50:35.178Z,17.42
2022-08-05T19:53:09.268Z,17.44
2022-08-05T19:56:15.093Z,17.34
2022-08-05T19:58:29.065Z,17.24
2022-08-05T20:00:58.900Z,17.23
2022-08-05T20:03:27.513Z,17.16
2022-08-05T20:06:15.569Z,17.09
2022-08-05T20:08:59.799Z,17.04
2022-08-05T20:11:34.485Z,17.02
2022-08-05T20:14:12.469Z,16.94
2022-08-05T20:16:43.105Z,16.97
2022-08-05T20:19:11.763Z,16.92
2022-08-05T20:21:44.121Z,16.92
2022-08-05T20:24:14.444Z,16.87
2022-08-05T20:26:44.412Z,16.96
2022-08-05T20:29:27.561Z,16.86
2022-08-05T20:31:58.238Z,16.83
2022-08-05T20:34:27.967Z,16.73
2022-08-05T20:37:00.599Z,16.55
2022-08-05T20:39:36.642Z,16.66
2022-08-05T20:42:05.525Z,16.63
2022-08-05T20:44:37.762Z,16.55
2022-08-05T20:47:07.608Z,16.51
2022-08-05T20:49:38.067Z,16.56
2022-08-05T20:52:10.626Z,16.45
2022-08-05T20:54:43.572Z,16.45
2022-08-05T20:57:43.511Z,16.42
2022-08-05T21:00:40.221Z,16.45
2022-08-05T21:03:07.366Z,16.46
2022-08-05T21:05:53.593Z,16.37
2022-08-05T21:08:26.721Z,16.36
2022-08-05T21:11:12.082Z,16.22
2022-08-05T21:13:56.516Z,16.29
2022-08-05T21:16:29.818Z,16.07
2022-08-05T21:19:00.660Z,16.02
2022-08-05T21:21:44.026Z,16.07
2022-08-05T21:24:20.050Z,16.00
2022-08-05T21:26:58.130Z,16.00
2022-08-05T21:29:32.078Z,16.01
2022-08-05T21:32:02.624Z,15.98
2022-08-05T21:34:31.476Z,15.89
2022-08-05T21:37:00.405Z,15.77
2022-08-05T21:39:30.502Z,15.85
2022-08-05T21:42:03.006Z,15.84
2022-08-05T21:44:31.939Z,15.73
2022-08-05T21:47:00.970Z,15.80
2022-08-05T21:49:48.314Z,15.78
2022-08-05T21:52:27.549Z,15.63
2022-08-05T21:55:07.006Z,15.64
2022-08-05T21:57:36.147Z,15.58
2022-08-05T22:00:07.089Z,15.47
2022-08-05T22:02:42.482Z,15.59
2022-08-05T22:05:11.528Z,15.59
2022-08-05T22:07:58.195Z,15.53
2022-08-05T22:10:29.639Z,15.47
2022-08-05T22:13:08.676Z,15.47
2022-08-05T22:16:01.808Z,15.37
2022-08-05T22:18:25.982Z,15.31
2022-08-05T22:20:55.891Z,15.27
2022-08-05T22:24:01.850Z,15.31
2022-08-05T22:27:06.885Z,15.22
2022-08-05T22:29:40.412Z,15.16
2022-08-05T22:32:09.917Z,15.09
2022-08-05T22:34:38.443Z,15.05
2022-08-05T22:37:08.870Z,15.07
2022-08-05T22:39:39.008Z,15.06
2022-08-05T22:42:11.836Z,14.94
2022-08-05T22:44:42.670Z,14.94
2022-08-05T22:47:29.115Z,14.92
2022-08-05T22:50:20.671Z,14.91
2022-08-05T22:52:48.247Z,14.76
2022-08-05T22:55:18.905Z,14.79
2022-08-05T22:57:49.856Z,14.78
2022-08-05T23:00:20.798Z,14.77
2022-08-05T23:02:49.790Z,14.64
2022-08-05T23:05:18.746Z,14.65
2022-08-05T23:07:48.882Z,14.58
2022-08-05T23:10:19.726Z,14.67
2022-08-05T23:12:51.251Z,14.58
2022-08-05T23:15:27.178Z,14.62
2022-08-05T23:18:00.689Z,14.47
2022-08-05T23:20:31.111Z,14.49
2022-08-05T23:22:59.667Z,14.56
2022-08-05T23:25:52.714Z,14.41
2022-08-05T23:28:17.589Z,14.52
2022-08-05T23:30:53.651Z,14.49
2022-08-05T23:34:03.245Z,14.37
2022-08-05T23:36:13.480Z,14.41
2022-08-05T23:38:43.069Z,14.33
2022-08-05T23:41:12.861Z,14.32
2022-08-05T23:44:05.028Z,14.37
2022-08-05T23:46:31.068Z,14.30
2022-08-05T23:49:01.923Z,14.24
2022-08-05T23:51:58.763Z,14.24
2022-08-05T23:54:30.415Z,14.19
2022-08-05T23:57:05.375Z,14.17
